sensor_id;sensor_type;location;lat;lon;timestamp;pressure;altitude;pressure_sealevel;temperature;humidity
64211;BME280;50528;48.514;14.394;2022-10-31T00:00:24;94325.98;;;8.71;73.36
64211;BME280;50528;48.514;14.394;2022-10-31T00:01:50;94325.36;;;8.70;73.67
64211;BME280;50528;48.514;14.394;2022-10-31T00:02:53;94328.73;;;8.71;73.75
64211;BME280;50528;48.514;14.394;2022-10-31T00:03:56;94327.80;;;8.71;73.60
64211;BME280;50528;48.514;14.394;2022-10-31T00:04:59;94328.70;;;8.72;73.67
64211;BME280;50528;48.514;14.394;2022-10-31T00:06:03;94328.11;;;8.71;73.50
64211;BME280;50528;48.514;14.394;2022-10-31T00:07:06;94325.55;;;8.70;73.43
64211;BME280;50528;48.514;14.394;2022-10-31T00:08:09;94328.46;;;8.67;73.22
64211;BME280;50528;48.514;14.394;2022-10-31T00:09:12;94326.44;;;8.63;73.12
64211;BME280;50528;48.514;14.394;2022-10-31T00:10:15;94326.89;;;8.60;73.04
64211;BME280;50528;48.514;14.394;2022-10-31T00:11:18;94327.38;;;8.57;73.14
64211;BME280;50528;48.514;14.394;2022-10-31T00:12:22;94326.88;;;8.54;72.93
64211;BME280;50528;48.514;14.394;2022-10-31T00:13:25;94325.88;;;8.52;72.84
64211;BME280;50528;48.514;14.394;2022-10-31T00:14:31;94327.95;;;8.49;72.85
64211;BME280;50528;48.514;14.394;2022-10-31T00:15:35;94325.46;;;8.46;72.97
64211;BME280;50528;48.514;14.394;2022-10-31T00:16:38;94323.95;;;8.44;73.11
64211;BME280;50528;48.514;14.394;2022-10-31T00:17:43;94330.45;;;8.46;73.23
64211;BME280;50528;48.514;14.394;2022-10-31T00:18:50;94319.41;;;8.41;73.20
64211;BME280;50528;48.514;14.394;2022-10-31T00:19:53;94327.20;;;8.46;73.02
64211;BME280;50528;48.514;14.394;2022-10-31T00:20:59;94326.00;;;8.45;73.08
64211;BME280;50528;48.514;14.394;2022-10-31T00:22:03;94330.06;;;8.44;72.98
64211;BME280;50528;48.514;14.394;2022-10-31T00:23:06;94328.87;;;8.44;72.85
64211;BME280;50528;48.514;14.394;2022-10-31T00:24:10;94330.11;;;8.44;73.27
64211;BME280;50528;48.514;14.394;2022-10-31T00:25:13;94330.96;;;8.44;73.25
64211;BME280;50528;48.514;14.394;2022-10-31T00:26:17;94330.58;;;8.43;73.26
64211;BME280;50528;48.514;14.394;2022-10-31T00:27:22;94328.31;;;8.43;73.21
64211;BME280;50528;48.514;14.394;2022-10-31T00:28:25;94327.52;;;8.43;73.37
64211;BME280;50528;48.514;14.394;2022-10-31T00:29:28;94324.42;;;8.39;73.49
64211;BME280;50528;48.514;14.394;2022-10-31T00:30:31;94330.98;;;8.43;73.30
64211;BME280;50528;48.514;14.394;2022-10-31T00:31:37;94329.91;;;8.42;73.49
64211;BME280;50528;48.514;14.394;2022-10-31T00:32:40;94330.69;;;8.41;73.34
64211;BME280;50528;48.514;14.394;2022-10-31T00:33:43;94330.00;;;8.41;73.31
64211;BME280;50528;48.514;14.394;2022-10-31T00:34:51;94334.48;;;8.40;73.36
64211;BME280;50528;48.514;14.394;2022-10-31T00:35:55;94332.11;;;8.39;73.41
64211;BME280;50528;48.514;14.394;2022-10-31T00:36:59;94333.40;;;8.36;73.32
64211;BME280;50528;48.514;14.394;2022-10-31T00:38:02;94317.70;;;8.27;73.49
64211;BME280;50528;48.514;14.394;2022-10-31T00:39:05;94333.19;;;8.34;73.62
64211;BME280;50528;48.514;14.394;2022-10-31T00:40:08;94335.33;;;8.33;73.44
64211;BME280;50528;48.514;14.394;2022-10-31T00:41:15;94333.13;;;8.32;73.38
64211;BME280;50528;48.514;14.394;2022-10-31T00:42:19;94331.85;;;8.31;73.61
64211;BME280;50528;48.514;14.394;2022-10-31T00:43:22;94331.74;;;8.29;73.63
64211;BME280;50528;48.514;14.394;2022-10-31T00:44:25;94329.90;;;8.28;73.49
64211;BME280;50528;48.514;14.394;2022-10-31T00:45:28;94333.21;;;8.26;73.42
64211;BME280;50528;48.514;14.394;2022-10-31T00:46:32;94332.77;;;8.23;73.61
64211;BME280;50528;48.514;14.394;2022-10-31T00:47:38;94332.67;;;8.21;73.46
64211;BME280;50528;48.514;14.394;2022-10-31T00:48:43;94330.35;;;8.19;73.34
64211;BME280;50528;48.514;14.394;2022-10-31T00:49:46;94332.15;;;8.18;73.49
64211;BME280;50528;48.514;14.394;2022-10-31T00:50:50;94333.54;;;8.17;73.51
64211;BME280;50528;48.514;14.394;2022-10-31T00:51:53;94333.90;;;8.16;73.61
64211;BME280;50528;48.514;14.394;2022-10-31T00:52:57;94331.23;;;8.17;73.60
64211;BME280;50528;48.514;14.394;2022-10-31T00:54:01;94331.71;;;8.17;73.59
64211;BME280;50528;48.514;14.394;2022-10-31T00:55:04;94330.41;;;8.15;73.55
64211;BME280;50528;48.514;14.394;2022-10-31T00:56:07;94333.89;;;8.19;73.66
64211;BME280;50528;48.514;14.394;2022-10-31T00:57:12;94335.50;;;8.20;73.71
64211;BME280;50528;48.514;14.394;2022-10-31T00:58:16;94333.71;;;8.21;73.82
64211;BME280;50528;48.514;14.394;2022-10-31T00:59:19;94336.61;;;8.23;73.70
64211;BME280;50528;48.514;14.394;2022-10-31T01:00:23;94337.48;;;8.26;73.93
64211;BME280;50528;48.514;14.394;2022-10-31T01:01:26;94338.84;;;8.27;74.11
64211;BME280;50528;48.514;14.394;2022-10-31T01:02:32;94340.16;;;8.29;74.05
64211;BME280;50528;48.514;14.394;2022-10-31T01:03:35;94337.86;;;8.29;74.61
64211;BME280;50528;48.514;14.394;2022-10-31T01:04:48;94341.30;;;8.30;74.61
64211;BME280;50528;48.514;14.394;2022-10-31T01:07:03;94341.48;;;8.31;74.74
64211;BME280;50528;48.514;14.394;2022-10-31T01:08:06;94342.84;;;8.31;74.52
64211;BME280;50528;48.514;14.394;2022-10-31T01:09:10;94341.37;;;8.30;74.42
64211;BME280;50528;48.514;14.394;2022-10-31T01:10:13;94343.91;;;8.30;74.68
64211;BME280;50528;48.514;14.394;2022-10-31T01:11:19;94342.66;;;8.28;74.42
64211;BME280;50528;48.514;14.394;2022-10-31T01:12:23;94343.63;;;8.29;74.30
64211;BME280;50528;48.514;14.394;2022-10-31T01:13:26;94341.20;;;8.27;74.70
64211;BME280;50528;48.514;14.394;2022-10-31T01:14:30;94348.27;;;8.28;74.62
64211;BME280;50528;48.514;14.394;2022-10-31T01:15:33;94342.91;;;8.27;75.06
64211;BME280;50528;48.514;14.394;2022-10-31T01:16:37;94342.88;;;8.26;75.09
64211;BME280;50528;48.514;14.394;2022-10-31T01:17:40;94343.55;;;8.25;74.80
64211;BME280;50528;48.514;14.394;2022-10-31T01:18:46;94343.16;;;8.24;74.62
64211;BME280;50528;48.514;14.394;2022-10-31T01:19:49;94332.01;;;8.15;75.10
64211;BME280;50528;48.514;14.394;2022-10-31T01:22:02;94340.95;;;8.17;75.77
64211;BME280;50528;48.514;14.394;2022-10-31T01:23:05;94339.54;;;8.17;75.21
64211;BME280;50528;48.514;14.394;2022-10-31T01:24:10;94341.70;;;8.18;75.14
64211;BME280;50528;48.514;14.394;2022-10-31T01:25:14;94341.02;;;8.19;75.31
64211;BME280;50528;48.514;14.394;2022-10-31T01:26:19;94341.48;;;8.20;75.38
64211;BME280;50528;48.514;14.394;2022-10-31T01:27:23;94342.89;;;8.22;75.41
64211;BME280;50528;48.514;14.394;2022-10-31T01:28:26;94332.81;;;8.17;75.60
64211;BME280;50528;48.514;14.394;2022-10-31T01:29:29;94342.77;;;8.19;75.57
64211;BME280;50528;48.514;14.394;2022-10-31T01:30:34;94339.13;;;8.16;75.65
64211;BME280;50528;48.514;14.394;2022-10-31T01:31:38;94343.33;;;8.15;75.35
64211;BME280;50528;48.514;14.394;2022-10-31T01:32:41;94343.41;;;8.15;75.47
64211;BME280;50528;48.514;14.394;2022-10-31T01:33:46;94343.63;;;8.13;75.94
64211;BME280;50528;48.514;14.394;2022-10-31T01:34:49;94340.91;;;8.13;75.99
64211;BME280;50528;48.514;14.394;2022-10-31T01:35:52;94339.67;;;8.12;75.83
64211;BME280;50528;48.514;14.394;2022-10-31T01:36:55;94339.57;;;8.11;75.80
64211;BME280;50528;48.514;14.394;2022-10-31T01:37:59;94337.84;;;8.10;76.02
64211;BME280;50528;48.514;14.394;2022-10-31T01:39:03;94336.23;;;8.09;76.00
64211;BME280;50528;48.514;14.394;2022-10-31T01:40:07;94336.76;;;8.09;76.06
64211;BME280;50528;48.514;14.394;2022-10-31T01:41:11;94335.20;;;8.08;76.29
64211;BME280;50528;48.514;14.394;2022-10-31T01:42:15;94332.77;;;8.06;76.60
64211;BME280;50528;48.514;14.394;2022-10-31T01:43:20;94333.67;;;8.05;76.40
64211;BME280;50528;48.514;14.394;2022-10-31T01:45:32;94335.60;;;8.01;76.40
64211;BME280;50528;48.514;14.394;2022-10-31T01:46:36;94335.66;;;7.96;76.50
64211;BME280;50528;48.514;14.394;2022-10-31T01:47:42;94337.16;;;7.92;76.77
64211;BME280;50528;48.514;14.394;2022-10-31T01:48:46;94337.25;;;7.86;76.33
64211;BME280;50528;48.514;14.394;2022-10-31T01:49:51;94334.92;;;7.85;76.36
64211;BME280;50528;48.514;14.394;2022-10-31T01:50:55;94336.49;;;7.85;76.84
64211;BME280;50528;48.514;14.394;2022-10-31T01:52:04;94331.92;;;7.87;76.40
64211;BME280;50528;48.514;14.394;2022-10-31T01:53:08;94334.35;;;7.88;76.56
64211;BME280;50528;48.514;14.394;2022-10-31T01:54:13;94332.52;;;7.91;76.73
64211;BME280;50528;48.514;14.394;2022-10-31T01:55:26;94331.88;;;7.93;76.19
64211;BME280;50528;48.514;14.394;2022-10-31T01:56:32;94331.30;;;7.96;76.37
64211;BME280;50528;48.514;14.394;2022-10-31T01:57:37;94334.23;;;7.99;76.38
64211;BME280;50528;48.514;14.394;2022-10-31T01:58:44;94331.62;;;8.01;76.87
64211;BME280;50528;48.514;14.394;2022-10-31T01:59:51;94329.97;;;8.04;76.41
64211;BME280;50528;48.514;14.394;2022-10-31T02:00:58;94329.47;;;8.06;76.30
64211;BME280;50528;48.514;14.394;2022-10-31T02:02:09;94328.70;;;8.09;76.34
64211;BME280;50528;48.514;14.394;2022-10-31T02:03:13;94331.70;;;8.11;76.61
64211;BME280;50528;48.514;14.394;2022-10-31T02:04:16;94329.69;;;8.13;76.52
64211;BME280;50528;48.514;14.394;2022-10-31T02:05:21;94330.35;;;8.16;76.78
64211;BME280;50528;48.514;14.394;2022-10-31T02:07:39;94329.66;;;8.19;76.35
64211;BME280;50528;48.514;14.394;2022-10-31T02:08:43;94327.52;;;8.21;77.20
64211;BME280;50528;48.514;14.394;2022-10-31T02:09:46;94325.45;;;8.22;76.84
64211;BME280;50528;48.514;14.394;2022-10-31T02:10:51;94326.65;;;8.23;76.49
64211;BME280;50528;48.514;14.394;2022-10-31T02:11:56;94327.58;;;8.25;76.83
64211;BME280;50528;48.514;14.394;2022-10-31T02:13:01;94326.72;;;8.26;76.24
64211;BME280;50528;48.514;14.394;2022-10-31T02:14:05;94327.08;;;8.28;76.28
64211;BME280;50528;48.514;14.394;2022-10-31T02:15:10;94327.23;;;8.29;76.35
64211;BME280;50528;48.514;14.394;2022-10-31T02:16:13;94325.20;;;8.31;76.34
64211;BME280;50528;48.514;14.394;2022-10-31T02:17:16;94327.77;;;8.33;76.65
64211;BME280;50528;48.514;14.394;2022-10-31T02:18:20;94323.61;;;8.34;76.52
64211;BME280;50528;48.514;14.394;2022-10-31T02:22:01;94323.59;;;8.39;76.41
64211;BME280;50528;48.514;14.394;2022-10-31T02:23:19;94325.19;;;8.40;76.85
64211;BME280;50528;48.514;14.394;2022-10-31T02:26:49;94323.45;;;8.46;76.43
64211;BME280;50528;48.514;14.394;2022-10-31T02:30:23;94321.84;;;8.52;76.74
64211;BME280;50528;48.514;14.394;2022-10-31T02:32:46;94317.17;;;8.53;76.71
64211;BME280;50528;48.514;14.394;2022-10-31T02:34:16;94318.09;;;8.55;76.98
64211;BME280;50528;48.514;14.394;2022-10-31T02:35:31;94318.83;;;8.57;76.86
64211;BME280;50528;48.514;14.394;2022-10-31T02:37:48;94320.16;;;8.57;77.50
64211;BME280;50528;48.514;14.394;2022-10-31T02:40:32;94327.04;;;8.52;76.45
64211;BME280;50528;48.514;14.394;2022-10-31T02:42:13;94324.37;;;8.46;76.08
64211;BME280;50528;48.514;14.394;2022-10-31T02:43:21;94321.69;;;8.42;76.19
64211;BME280;50528;48.514;14.394;2022-10-31T02:45:53;94321.44;;;8.33;76.69
64211;BME280;50528;48.514;14.394;2022-10-31T02:47:05;94324.86;;;8.32;76.89
64211;BME280;50528;48.514;14.394;2022-10-31T02:48:17;94325.86;;;8.30;77.80
64211;BME280;50528;48.514;14.394;2022-10-31T02:49:27;94325.41;;;8.30;77.77
64211;BME280;50528;48.514;14.394;2022-10-31T02:50:32;94324.90;;;8.30;77.53
64211;BME280;50528;48.514;14.394;2022-10-31T02:51:40;94329.52;;;8.30;78.04
64211;BME280;50528;48.514;14.394;2022-10-31T02:52:49;94329.70;;;8.31;78.78
64211;BME280;50528;48.514;14.394;2022-10-31T02:53:53;94326.92;;;8.33;78.68
64211;BME280;50528;48.514;14.394;2022-10-31T02:54:56;94325.70;;;8.34;78.83
64211;BME280;50528;48.514;14.394;2022-10-31T02:56:01;94324.86;;;8.33;79.64
64211;BME280;50528;48.514;14.394;2022-10-31T02:57:09;94328.10;;;8.35;79.17
64211;BME280;50528;48.514;14.394;2022-10-31T02:58:13;94328.98;;;8.36;78.73
64211;BME280;50528;48.514;14.394;2022-10-31T02:59:19;94325.80;;;8.35;78.94
64211;BME280;50528;48.514;14.394;2022-10-31T03:00:23;94330.67;;;8.38;79.08
64211;BME280;50528;48.514;14.394;2022-10-31T03:04:16;94333.67;;;8.34;79.52
64211;BME280;50528;48.514;14.394;2022-10-31T03:09:04;94331.14;;;8.35;78.28
64211;BME280;50528;48.514;14.394;2022-10-31T03:10:25;94331.91;;;8.37;79.09
64211;BME280;50528;48.514;14.394;2022-10-31T03:11:36;94329.46;;;8.39;79.57
64211;BME280;50528;48.514;14.394;2022-10-31T03:12:49;94325.83;;;8.40;78.86
64211;BME280;50528;48.514;14.394;2022-10-31T03:15:10;94327.42;;;8.43;78.93
64211;BME280;50528;48.514;14.394;2022-10-31T03:16:20;94330.19;;;8.45;79.15
64211;BME280;50528;48.514;14.394;2022-10-31T03:17:33;94326.71;;;8.46;79.84
64211;BME280;50528;48.514;14.394;2022-10-31T03:18:43;94329.69;;;8.47;79.38
64211;BME280;50528;48.514;14.394;2022-10-31T03:19:49;94327.67;;;8.49;79.06
64211;BME280;50528;48.514;14.394;2022-10-31T03:20:58;94330.56;;;8.49;79.16
64211;BME280;50528;48.514;14.394;2022-10-31T03:22:12;94330.59;;;8.48;78.66
64211;BME280;50528;48.514;14.394;2022-10-31T03:23:18;94329.59;;;8.48;78.68
64211;BME280;50528;48.514;14.394;2022-10-31T03:24:25;94331.22;;;8.47;78.53
64211;BME280;50528;48.514;14.394;2022-10-31T03:25:33;94331.18;;;8.46;78.44
64211;BME280;50528;48.514;14.394;2022-10-31T03:26:42;94328.09;;;8.46;78.57
64211;BME280;50528;48.514;14.394;2022-10-31T03:27:57;94329.07;;;8.48;78.35
64211;BME280;50528;48.514;14.394;2022-10-31T03:29:05;94331.27;;;8.48;78.27
64211;BME280;50528;48.514;14.394;2022-10-31T03:30:08;94326.93;;;8.48;77.94
64211;BME280;50528;48.514;14.394;2022-10-31T03:31:26;94333.68;;;8.48;77.88
64211;BME280;50528;48.514;14.394;2022-10-31T03:32:34;94328.59;;;8.47;77.94
64211;BME280;50528;48.514;14.394;2022-10-31T03:33:40;94326.52;;;8.46;77.94
64211;BME280;50528;48.514;14.394;2022-10-31T03:34:48;94327.11;;;8.47;78.20
64211;BME280;50528;48.514;14.394;2022-10-31T03:35:54;94329.77;;;8.45;78.05
64211;BME280;50528;48.514;14.394;2022-10-31T03:36:59;94330.71;;;8.42;77.85
64211;BME280;50528;48.514;14.394;2022-10-31T03:38:04;94328.59;;;8.41;77.69
64211;BME280;50528;48.514;14.394;2022-10-31T03:39:12;94330.58;;;8.40;78.52
64211;BME280;50528;48.514;14.394;2022-10-31T03:40:16;94330.79;;;8.38;78.23
64211;BME280;50528;48.514;14.394;2022-10-31T03:41:28;94330.30;;;8.37;77.94
64211;BME280;50528;48.514;14.394;2022-10-31T03:42:36;94333.15;;;8.34;77.97
64211;BME280;50528;48.514;14.394;2022-10-31T03:43:42;94331.90;;;8.33;77.80
64211;BME280;50528;48.514;14.394;2022-10-31T03:44:49;94331.48;;;8.31;77.75
64211;BME280;50528;48.514;14.394;2022-10-31T03:45:56;94334.27;;;8.29;77.68
64211;BME280;50528;48.514;14.394;2022-10-31T03:46:59;94333.33;;;8.27;77.82
64211;BME280;50528;48.514;14.394;2022-10-31T03:48:03;94330.68;;;8.23;77.61
64211;BME280;50528;48.514;14.394;2022-10-31T03:49:07;94332.55;;;8.21;77.38
64211;BME280;50528;48.514;14.394;2022-10-31T03:50:12;94332.27;;;8.18;77.34
64211;BME280;50528;48.514;14.394;2022-10-31T03:51:25;94334.75;;;8.16;77.37
64211;BME280;50528;48.514;14.394;2022-10-31T03:52:33;94314.36;;;8.02;77.58
64211;BME280;50528;48.514;14.394;2022-10-31T03:53:40;94332.44;;;8.10;77.78
64211;BME280;50528;48.514;14.394;2022-10-31T03:54:59;94332.48;;;8.07;77.69
64211;BME280;50528;48.514;14.394;2022-10-31T03:56:13;94332.46;;;8.05;78.31
64211;BME280;50528;48.514;14.394;2022-10-31T03:57:38;94333.27;;;8.02;78.08
64211;BME280;50528;48.514;14.394;2022-10-31T03:58:45;94338.63;;;7.96;77.67
64211;BME280;50528;48.514;14.394;2022-10-31T04:00:13;94337.99;;;7.93;77.44
64211;BME280;50528;48.514;14.394;2022-10-31T04:01:21;94339.58;;;7.90;77.45
64211;BME280;50528;48.514;14.394;2022-10-31T04:02:26;94338.25;;;7.88;77.36
64211;BME280;50528;48.514;14.394;2022-10-31T04:03:33;94337.14;;;7.86;77.65
64211;BME280;50528;48.514;14.394;2022-10-31T04:04:37;94342.23;;;7.84;77.55
64211;BME280;50528;48.514;14.394;2022-10-31T04:05:42;94341.00;;;7.83;77.77
64211;BME280;50528;48.514;14.394;2022-10-31T04:06:46;94338.48;;;7.81;78.38
64211;BME280;50528;48.514;14.394;2022-10-31T04:07:51;94343.96;;;7.80;78.01
64211;BME280;50528;48.514;14.394;2022-10-31T04:08:58;94344.52;;;7.80;77.77
64211;BME280;50528;48.514;14.394;2022-10-31T04:10:05;94347.34;;;7.80;78.47
64211;BME280;50528;48.514;14.394;2022-10-31T04:11:10;94346.94;;;7.80;78.27
64211;BME280;50528;48.514;14.394;2022-10-31T04:12:21;94348.02;;;7.80;78.41
64211;BME280;50528;48.514;14.394;2022-10-31T04:13:36;94349.31;;;7.79;78.28
64211;BME280;50528;48.514;14.394;2022-10-31T04:14:46;94345.14;;;7.78;78.03
64211;BME280;50528;48.514;14.394;2022-10-31T04:15:51;94346.53;;;7.77;78.18
64211;BME280;50528;48.514;14.394;2022-10-31T04:16:57;94345.41;;;7.76;78.05
64211;BME280;50528;48.514;14.394;2022-10-31T04:18:07;94341.39;;;7.71;77.91
64211;BME280;50528;48.514;14.394;2022-10-31T04:19:11;94345.98;;;7.75;78.12
64211;BME280;50528;48.514;14.394;2022-10-31T04:20:16;94344.58;;;7.75;78.20
64211;BME280;50528;48.514;14.394;2022-10-31T04:21:25;94343.73;;;7.75;78.29
64211;BME280;50528;48.514;14.394;2022-10-31T04:22:32;94344.94;;;7.75;78.10
64211;BME280;50528;48.514;14.394;2022-10-31T04:23:38;94344.42;;;7.73;78.08
64211;BME280;50528;48.514;14.394;2022-10-31T04:24:51;94346.60;;;7.73;78.09
64211;BME280;50528;48.514;14.394;2022-10-31T04:25:54;94344.62;;;7.71;78.00
64211;BME280;50528;48.514;14.394;2022-10-31T04:26:57;94343.59;;;7.70;78.16
64211;BME280;50528;48.514;14.394;2022-10-31T04:28:03;94341.74;;;7.68;78.07
64211;BME280;50528;48.514;14.394;2022-10-31T04:29:07;94343.77;;;7.67;77.90
64211;BME280;50528;48.514;14.394;2022-10-31T04:30:10;94343.35;;;7.65;77.87
64211;BME280;50528;48.514;14.394;2022-10-31T04:31:17;94342.98;;;7.65;77.85
64211;BME280;50528;48.514;14.394;2022-10-31T04:32:21;94344.09;;;7.65;78.31
64211;BME280;50528;48.514;14.394;2022-10-31T04:33:24;94341.30;;;7.65;78.09
64211;BME280;50528;48.514;14.394;2022-10-31T04:34:27;94345.17;;;7.65;78.11
64211;BME280;50528;48.514;14.394;2022-10-31T04:35:30;94341.45;;;7.61;78.01
64211;BME280;50528;48.514;14.394;2022-10-31T04:36:33;94342.31;;;7.64;78.23
64211;BME280;50528;48.514;14.394;2022-10-31T04:37:37;94327.11;;;7.54;78.21
64211;BME280;50528;48.514;14.394;2022-10-31T04:38:40;94331.33;;;7.55;78.22
64211;BME280;50528;48.514;14.394;2022-10-31T04:39:50;94345.38;;;7.63;78.07
64211;BME280;50528;48.514;14.394;2022-10-31T04:41:12;94344.50;;;7.62;78.27
64211;BME280;50528;48.514;14.394;2022-10-31T04:42:42;94349.65;;;7.61;78.17
64211;BME280;50528;48.514;14.394;2022-10-31T04:43:45;94345.67;;;7.61;78.27
64211;BME280;50528;48.514;14.394;2022-10-31T04:44:48;94346.17;;;7.59;78.18
64211;BME280;50528;48.514;14.394;2022-10-31T04:45:52;94344.24;;;7.59;78.03
64211;BME280;50528;48.514;14.394;2022-10-31T04:46:55;94345.13;;;7.60;78.18
64211;BME280;50528;48.514;14.394;2022-10-31T04:47:58;94341.72;;;7.60;78.11
64211;BME280;50528;48.514;14.394;2022-10-31T04:49:02;94344.80;;;7.60;77.94
64211;BME280;50528;48.514;14.394;2022-10-31T04:50:05;94344.33;;;7.60;77.94
64211;BME280;50528;48.514;14.394;2022-10-31T04:51:10;94341.70;;;7.60;78.05
64211;BME280;50528;48.514;14.394;2022-10-31T04:52:13;94343.80;;;7.60;78.02
64211;BME280;50528;48.514;14.394;2022-10-31T04:53:17;94345.59;;;7.60;77.89
64211;BME280;50528;48.514;14.394;2022-10-31T04:54:39;94345.52;;;7.61;78.05
64211;BME280;50528;48.514;14.394;2022-10-31T04:56:11;94344.79;;;7.61;78.17
64211;BME280;50528;48.514;14.394;2022-10-31T04:57:18;94342.14;;;7.60;78.06
64211;BME280;50528;48.514;14.394;2022-10-31T04:58:22;94343.89;;;7.63;78.11
64211;BME280;50528;48.514;14.394;2022-10-31T04:59:25;94344.69;;;7.63;77.90
64211;BME280;50528;48.514;14.394;2022-10-31T05:00:29;94345.94;;;7.63;77.99
64211;BME280;50528;48.514;14.394;2022-10-31T05:01:32;94342.20;;;7.62;77.82
64211;BME280;50528;48.514;14.394;2022-10-31T05:02:42;94343.81;;;7.62;77.96
64211;BME280;50528;48.514;14.394;2022-10-31T05:03:46;94341.60;;;7.61;77.95
64211;BME280;50528;48.514;14.394;2022-10-31T05:04:49;94345.27;;;7.62;77.96
64211;BME280;50528;48.514;14.394;2022-10-31T05:05:55;94340.53;;;7.61;78.03
64211;BME280;50528;48.514;14.394;2022-10-31T05:06:59;94340.98;;;7.62;78.10
64211;BME280;50528;48.514;14.394;2022-10-31T05:08:02;94336.00;;;7.58;78.14
64211;BME280;50528;48.514;14.394;2022-10-31T05:09:07;94344.22;;;7.62;78.04
64211;BME280;50528;48.514;14.394;2022-10-31T05:10:14;94345.46;;;7.61;78.26
64211;BME280;50528;48.514;14.394;2022-10-31T05:11:36;94346.15;;;7.61;78.34
64211;BME280;50528;48.514;14.394;2022-10-31T05:12:55;94347.38;;;7.60;78.33
64211;BME280;50528;48.514;14.394;2022-10-31T05:14:20;94344.94;;;7.59;78.28
64211;BME280;50528;48.514;14.394;2022-10-31T05:15:42;94344.27;;;7.58;78.62
64211;BME280;50528;48.514;14.394;2022-10-31T05:17:05;94343.75;;;7.56;78.45
64211;BME280;50528;48.514;14.394;2022-10-31T05:18:38;94344.25;;;7.54;78.33
64211;BME280;50528;48.514;14.394;2022-10-31T05:20:08;94341.63;;;7.55;78.27
64211;BME280;50528;48.514;14.394;2022-10-31T05:21:37;94345.33;;;7.55;78.59
64211;BME280;50528;48.514;14.394;2022-10-31T05:22:45;94345.29;;;7.54;78.67
64211;BME280;50528;48.514;14.394;2022-10-31T05:23:50;94345.57;;;7.54;78.80
64211;BME280;50528;48.514;14.394;2022-10-31T05:24:55;94343.79;;;7.55;78.80
64211;BME280;50528;48.514;14.394;2022-10-31T05:25:58;94342.50;;;7.55;78.80
64211;BME280;50528;48.514;14.394;2022-10-31T05:27:08;94343.02;;;7.55;78.90
64211;BME280;50528;48.514;14.394;2022-10-31T05:28:11;94342.15;;;7.55;78.70
64211;BME280;50528;48.514;14.394;2022-10-31T05:29:14;94344.52;;;7.56;78.59
64211;BME280;50528;48.514;14.394;2022-10-31T05:30:21;94343.10;;;7.56;78.62
64211;BME280;50528;48.514;14.394;2022-10-31T05:31:24;94345.08;;;7.57;78.40
64211;BME280;50528;48.514;14.394;2022-10-31T05:32:36;94342.79;;;7.56;78.64
64211;BME280;50528;48.514;14.394;2022-10-31T05:33:58;94342.70;;;7.55;78.59
64211;BME280;50528;48.514;14.394;2022-10-31T05:35:25;94343.63;;;7.55;78.80
64211;BME280;50528;48.514;14.394;2022-10-31T05:36:44;94341.45;;;7.55;78.57
64211;BME280;50528;48.514;14.394;2022-10-31T05:37:50;94344.02;;;7.55;78.65
64211;BME280;50528;48.514;14.394;2022-10-31T05:38:53;94340.61;;;7.55;78.91
64211;BME280;50528;48.514;14.394;2022-10-31T05:39:59;94340.45;;;7.55;78.54
64211;BME280;50528;48.514;14.394;2022-10-31T05:41:10;94339.86;;;7.54;78.42
64211;BME280;50528;48.514;14.394;2022-10-31T05:42:14;94341.80;;;7.54;78.64
64211;BME280;50528;48.514;14.394;2022-10-31T05:43:17;94342.36;;;7.54;78.78
64211;BME280;50528;48.514;14.394;2022-10-31T05:44:20;94345.05;;;7.55;78.60
64211;BME280;50528;48.514;14.394;2022-10-31T05:45:32;94342.67;;;7.55;78.59
64211;BME280;50528;48.514;14.394;2022-10-31T05:46:38;94343.43;;;7.56;78.59
64211;BME280;50528;48.514;14.394;2022-10-31T05:48:07;94345.30;;;7.58;78.69
64211;BME280;50528;48.514;14.394;2022-10-31T05:49:29;94345.50;;;7.59;78.80
64211;BME280;50528;48.514;14.394;2022-10-31T05:50:55;94349.44;;;7.59;78.68
64211;BME280;50528;48.514;14.394;2022-10-31T05:52:00;94349.98;;;7.60;78.46
64211;BME280;50528;48.514;14.394;2022-10-31T05:53:21;94347.94;;;7.60;78.58
64211;BME280;50528;48.514;14.394;2022-10-31T05:54:24;94350.88;;;7.60;78.47
64211;BME280;50528;48.514;14.394;2022-10-31T05:55:28;94347.06;;;7.59;78.70
64211;BME280;50528;48.514;14.394;2022-10-31T05:56:38;94349.66;;;7.59;78.63
64211;BME280;50528;48.514;14.394;2022-10-31T05:57:41;94348.98;;;7.59;78.45
64211;BME280;50528;48.514;14.394;2022-10-31T05:58:44;94350.81;;;7.59;78.28
64211;BME280;50528;48.514;14.394;2022-10-31T05:59:49;94350.17;;;7.59;78.62
64211;BME280;50528;48.514;14.394;2022-10-31T06:00:57;94341.39;;;7.54;78.35
64211;BME280;50528;48.514;14.394;2022-10-31T06:02:00;94353.23;;;7.61;78.43
64211;BME280;50528;48.514;14.394;2022-10-31T06:03:22;94349.49;;;7.61;78.70
64211;BME280;50528;48.514;14.394;2022-10-31T06:04:29;94351.86;;;7.62;78.52
64211;BME280;50528;48.514;14.394;2022-10-31T06:05:33;94350.25;;;7.62;78.47
64211;BME280;50528;48.514;14.394;2022-10-31T06:06:36;94352.06;;;7.63;78.44
64211;BME280;50528;48.514;14.394;2022-10-31T06:07:39;94349.81;;;7.63;78.59
64211;BME280;50528;48.514;14.394;2022-10-31T06:08:43;94351.54;;;7.63;78.65
64211;BME280;50528;48.514;14.394;2022-10-31T06:09:49;94351.70;;;7.63;78.69
64211;BME280;50528;48.514;14.394;2022-10-31T06:10:55;94353.07;;;7.63;78.55
64211;BME280;50528;48.514;14.394;2022-10-31T06:12:20;94355.08;;;7.62;78.78
64211;BME280;50528;48.514;14.394;2022-10-31T06:13:42;94355.06;;;7.60;78.80
64211;BME280;50528;48.514;14.394;2022-10-31T06:14:52;94358.54;;;7.61;78.95
64211;BME280;50528;48.514;14.394;2022-10-31T06:15:55;94361.55;;;7.60;78.89
64211;BME280;50528;48.514;14.394;2022-10-31T06:17:00;94363.52;;;7.59;78.86
64211;BME280;50528;48.514;14.394;2022-10-31T06:18:33;94360.36;;;7.58;78.56
64211;BME280;50528;48.514;14.394;2022-10-31T06:19:36;94363.82;;;7.59;78.52
64211;BME280;50528;48.514;14.394;2022-10-31T06:20:39;94362.09;;;7.59;78.48
64211;BME280;50528;48.514;14.394;2022-10-31T06:21:45;94357.26;;;7.53;78.48